Lincolnville, Kansas
Current Conditions -  °F | °C
As of 10:55 AM on Friday 28 Nov 2014 (Local Time) from KEWK Reporting Station
Clear Clear  
Wind Chill: 11°   Ceiling: Unl
Heat Index: 11°   Visibility: 10mi
Dew Point: -1°   Wind: 17mph
Humidity: 44%   Direction: 200°SSW
Pressure: 29.94"   Gusts: 24mph
Location:  38.49°N, 96.96°W
Report Text: KEWK 281655Z AUTO 20015G21KT 10SM CLR 11/M01 A2994 RMK AO1
Loading
Personal Weather Stations






























Interactive Weather Map New forecast layout! Learn more

10-Day Weather Forecast

Advertisements
Track Severe Weather on mobile